Time;durP1;ratioP1;P1;durP2;ratioP2;P2;SDS_P1;SDS_P2;PMS_P1;PMS_P2;Temp;Humidity;BMP_temperature;BMP_pressure;BME280_temperature;BME280_humidity;BME280_pressure;Samples;Min_cycle;Max_cycle;Signal;HPM_P1;HPM_P2
2023/08/10 00:04:11;;;;;;;;;;;;;;;14.06;100.00;96104.06;10517843;28;2453;-75
2023/08/10 00:09:14;;;;;;;;;;;;;;;14.13;100.00;96106.41;10532606;28;1942;-75
2023/08/10 00:14:20;;;;;;;;;;;;;;;14.17;100.00;96101.22;10515737;28;1863;-74
2023/08/10 00:19:27;;;;;;;;;;;;;;;14.24;100.00;96101.69;10528553;28;1811;-74
2023/08/10 00:24:30;;;;;;;;;;;;;;;14.21;100.00;96104.97;10509710;28;2253;-74
2023/08/10 00:29:34;;;;;;;;;;;;;;;13.96;100.00;96096.06;10519404;28;1899;-74
2023/08/10 00:34:42;;;;;;;;;;;;;;;13.74;100.00;96093.88;10523013;28;1894;-74
2023/08/10 00:39:50;;;;;;;;;;;;;;;13.55;100.00;96084.88;10517963;28;4603;-74
2023/08/10 00:44:54;;;;;;;;;;;;;;;13.42;100.00;96085.50;10510644;28;1954;-75
2023/08/10 00:50:01;;;;;;;;;;;;;;;13.35;100.00;96085.84;10517898;28;2031;-74
2023/08/10 00:55:08;;;;;;;;;;;;;;;13.25;100.00;96081.34;10523160;28;1997;-74
2023/08/10 01:00:24;;;;;;;;;;;;;;;13.20;100.00;96080.53;10517928;28;2416;-74
2023/08/10 01:05:28;;;;;;;;;;;;;;;13.09;100.00;96073.59;10527174;28;1922;-74
2023/08/10 01:10:34;;;;;;;;;;;;;;;13.06;100.00;96087.69;10524230;28;1929;-74
2023/08/10 01:15:40;;;;;;;;;;;;;;;13.07;100.00;96078.50;10520815;28;2022;-74
2023/08/10 01:20:45;;;;;;;;;;;;;;;13.10;100.00;96080.59;10518657;28;2151;-75
2023/08/10 01:25:49;;;;;;;;;;;;;;;13.11;100.00;96090.34;10523458;28;1971;-74
2023/08/10 01:30:54;;;;;;;;;;;;;;;13.14;100.00;96092.47;10524873;28;1941;-74
2023/08/10 01:35:59;;;;;;;;;;;;;;;13.06;100.00;96084.97;10516719;28;2192;-74
2023/08/10 01:41:02;;;;;;;;;;;;;;;13.03;100.00;96096.31;10539909;28;4524;-74
2023/08/10 01:46:11;;;;;;;;;;;;;;;13.13;100.00;96104.34;10520760;28;2052;-74
2023/08/10 01:51:14;;;;;;;;;;;;;;;13.27;100.00;96110.75;10538098;27;1917;-73
2023/08/10 01:56:18;;;;;;;;;;;;;;;13.38;100.00;96114.97;10520495;28;2392;-74
2023/08/10 02:01:22;;;;;;;;;;;;;;;13.47;100.00;96121.38;10531965;28;2300;-74
2023/08/10 02:06:26;;;;;;;;;;;;;;;13.48;100.00;96120.28;10517897;28;2244;-74
2023/08/10 02:11:30;;;;;;;;;;;;;;;13.57;100.00;96106.19;10516639;28;2344;-75
2023/08/10 02:16:35;;;;;;;;;;;;;;;13.61;100.00;96115.31;10529112;28;2064;-74
2023/08/10 02:21:39;;;;;;;;;;;;;;;13.57;100.00;96108.88;10520084;28;1977;-75
2023/08/10 02:26:43;;;;;;;;;;;;;;;13.62;100.00;96096.16;10523950;28;1964;-75
2023/08/10 02:31:47;;;;;;;;;;;;;;;13.73;100.00;96118.44;10518793;28;1965;-75
2023/08/10 02:36:50;;;;;;;;;;;;;;;13.74;100.00;96126.28;10525293;28;2031;-75
2023/08/10 02:41:54;;;;;;;;;;;;;;;13.77;100.00;96112.19;10527431;28;1990;-76
2023/08/10 02:46:57;;;;;;;;;;;;;;;13.78;100.00;96116.50;10537791;28;1979;-75
2023/08/10 02:52:05;;;;;;;;;;;;;;;13.81;100.00;96120.53;10522050;28;2383;-76
2023/08/10 02:57:08;;;;;;;;;;;;;;;13.89;100.00;96122.63;10535226;27;2141;-75
2023/08/10 03:02:12;;;;;;;;;;;;;;;13.96;100.00;96125.78;10541269;28;2027;-75
2023/08/10 03:07:33;;;;;;;;;;;;;;;13.90;100.00;96124.22;10524270;28;1989;-74
2023/08/10 03:18:23;;;;;;;;;;;;;;;13.88;100.00;96131.81;10517742;28;2159;-75
2023/08/10 03:23:26;;;;;;;;;;;;;;;13.92;100.00;96132.03;10516443;28;2110;-74
2023/08/10 03:28:31;;;;;;;;;;;;;;;13.87;100.00;96141.03;10520668;28;1988;-73
2023/08/10 03:33:40;;;;;;;;;;;;;;;13.84;100.00;96146.97;10518497;28;1990;-74
2023/08/10 03:38:44;;;;;;;;;;;;;;;13.82;100.00;96149.19;10515067;28;1984;-74
2023/08/10 03:43:49;;;;;;;;;;;;;;;13.82;100.00;96149.19;10526544;28;4654;-73
2023/08/10 03:48:56;;;;;;;;;;;;;;;13.77;100.00;96155.41;10525832;28;2485;-76
2023/08/10 03:53:59;;;;;;;;;;;;;;;13.77;100.00;96154.63;10518009;28;2022;-75
2023/08/10 03:59:03;;;;;;;;;;;;;;;13.71;100.00;96153.84;10523011;28;1996;-76
2023/08/10 04:04:10;;;;;;;;;;;;;;;13.70;100.00;96164.94;10522154;28;2095;-76
2023/08/10 04:09:14;;;;;;;;;;;;;;;13.67;100.00;96168.19;10520903;28;2126;-76
2023/08/10 04:14:18;;;;;;;;;;;;;;;13.80;100.00;96181.06;10520287;28;2035;-76
2023/08/10 04:19:23;;;;;;;;;;;;;;;13.90;100.00;96189.09;10514568;28;2157;-76
2023/08/10 04:24:27;;;;;;;;;;;;;;;13.96;100.00;96189.84;10517954;28;1906;-77
2023/08/10 04:29:33;;;;;;;;;;;;;;;14.01;100.00;96189.81;10523511;28;2143;-76
2023/08/10 04:34:41;;;;;;;;;;;;;;;14.29;100.00;96191.66;10520001;28;2213;-78
2023/08/10 04:39:45;;;;;;;;;;;;;;;14.56;100.00;96199.22;10538005;27;1913;-76
2023/08/10 04:44:52;;;;;;;;;;;;;;;14.66;100.00;96192.91;10522752;28;2224;-76
2023/08/10 04:49:56;;;;;;;;;;;;;;;14.73;100.00;96189.84;10520355;28;1902;-76
2023/08/10 04:55:04;;;;;;;;;;;;;;;14.78;100.00;96181.69;10522352;28;1974;-76
2023/08/10 05:00:13;;;;;;;;;;;;;;;14.94;100.00;96191.19;10523880;28;1914;-75
2023/08/10 05:05:17;;;;;;;;;;;;;;;15.31;100.00;96189.59;10515023;28;1992;-75
2023/08/10 05:10:22;;;;;;;;;;;;;;;15.36;100.00;96186.84;10506063;28;1898;-74
2023/08/10 05:15:26;;;;;;;;;;;;;;;15.49;100.00;96193.41;10523271;28;2041;-75
2023/08/10 05:20:33;;;;;;;;;;;;;;;15.78;100.00;96183.22;10528705;28;1905;-75
2023/08/10 05:25:40;;;;;;;;;;;;;;;16.57;100.00;96176.91;10522651;28;1967;-75
2023/08/10 05:30:45;;;;;;;;;;;;;;;16.60;100.00;96179.00;10519633;28;1926;-75
2023/08/10 05:36:04;;;;;;;;;;;;;;;16.53;100.00;96179.41;10536574;28;1940;-75
2023/08/10 05:41:08;;;;;;;;;;;;;;;16.86;100.00;96190.19;10521941;28;4615;-75
2023/08/10 05:46:16;;;;;;;;;;;;;;;16.75;100.00;96190.41;10530101;28;1965;-75
2023/08/10 05:51:28;;;;;;;;;;;;;;;16.16;100.00;96189.34;10518830;28;1894;-76
2023/08/10 05:56:32;;;;;;;;;;;;;;;16.50;100.00;96188.16;10527387;28;2035;-74
2023/08/10 06:01:37;;;;;;;;;;;;;;;16.88;100.00;96190.69;10521584;28;1922;-74
2023/08/10 06:06:39;;;;;;;;;;;;;;;17.08;100.00;96186.75;10537140;28;1990;-75
2023/08/10 06:11:44;;;;;;;;;;;;;;;16.97;100.00;96186.16;10521459;28;1891;-71
2023/08/10 06:16:50;;;;;;;;;;;;;;;17.38;100.00;96179.84;10535441;28;1882;-71
2023/08/10 06:21:53;;;;;;;;;;;;;;;17.29;100.00;96185.19;10516573;28;1862;-71
2023/08/10 06:26:57;;;;;;;;;;;;;;;16.96;100.00;96187.25;10541163;27;1991;-71
2023/08/10 06:32:03;;;;;;;;;;;;;;;17.16;100.00;96178.69;10522356;28;1942;-72
2023/08/10 06:37:06;;;;;;;;;;;;;;;17.58;100.00;96168.50;10510362;28;2429;-72
2023/08/10 06:42:10;;;;;;;;;;;;;;;17.74;100.00;96169.72;10520584;28;4542;-73
2023/08/10 06:47:13;;;;;;;;;;;;;;;18.02;100.00;96177.78;10511255;28;1996;-69
2023/08/10 06:52:16;;;;;;;;;;;;;;;18.34;100.00;96180.19;10516313;28;1851;-72
2023/08/10 06:57:21;;;;;;;;;;;;;;;18.23;100.00;96170.69;10515111;28;2126;-69
2023/08/10 07:02:25;;;;;;;;;;;;;;;18.42;100.00;96175.88;10518141;28;1916;-69
2023/08/10 07:07:28;;;;;;;;;;;;;;;18.57;100.00;96177.38;10515366;28;1902;-69
2023/08/10 07:12:31;;;;;;;;;;;;;;;18.78;100.00;96177.66;10514085;28;1874;-70
2023/08/10 07:17:34;;;;;;;;;;;;;;;19.20;100.00;96178.84;10515593;28;1804;-70
2023/08/10 07:22:41;;;;;;;;;;;;;;;19.07;100.00;96177.88;10512035;28;2138;-71
2023/08/10 07:27:44;;;;;;;;;;;;;;;19.15;100.00;96188.00;10528479;28;1910;-71
2023/08/10 07:32:49;;;;;;;;;;;;;;;18.73;100.00;96185.97;10509085;28;2407;-70
2023/08/10 07:37:52;;;;;;;;;;;;;;;18.22;100.00;96188.13;10505614;28;1870;-68
2023/08/10 07:43:05;;;;;;;;;;;;;;;18.82;100.00;96189.50;10513840;28;4555;-76
2023/08/10 07:48:10;;;;;;;;;;;;;;;18.99;100.00;96181.38;10522223;28;1931;-74
2023/08/10 07:53:17;;;;;;;;;;;;;;;19.60;100.00;96193.19;10530399;28;1561;-74
2023/08/10 07:58:28;;;;;;;;;;;;;;;18.84;100.00;96199.00;10532575;28;1678;-75
2023/08/10 08:03:32;;;;;;;;;;;;;;;19.24;100.00;96198.91;10525796;28;1503;-76
2023/08/10 08:08:35;;;;;;;;;;;;;;;18.98;100.00;96196.13;10526283;28;1906;-74
2023/08/10 08:13:42;;;;;;;;;;;;;;;19.74;100.00;96203.94;10518394;28;1986;-74
2023/08/10 08:18:46;;;;;;;;;;;;;;;19.21;100.00;96202.25;10529047;28;1415;-74
2023/08/10 08:23:49;;;;;;;;;;;;;;;19.54;100.00;96199.09;10549476;28;1596;-74
2023/08/10 08:29:00;;;;;;;;;;;;;;;20.18;100.00;96207.44;10529643;28;2364;-75
2023/08/10 08:34:09;;;;;;;;;;;;;;;20.20;100.00;96196.97;10518921;28;1598;-76
2023/08/10 08:39:15;;;;;;;;;;;;;;;20.21;100.00;96206.75;10531078;28;1798;-76
2023/08/10 08:44:20;;;;;;;;;;;;;;;19.99;100.00;96210.50;10531372;28;4627;-76
2023/08/10 08:49:25;;;;;;;;;;;;;;;20.13;100.00;96207.59;10528782;28;1514;-77
2023/08/10 08:54:32;;;;;;;;;;;;;;;20.74;100.00;96202.75;10532631;28;1462;-76
2023/08/10 08:59:42;;;;;;;;;;;;;;;20.40;100.00;96209.13;10530351;28;1804;-76
2023/08/10 09:04:48;;;;;;;;;;;;;;;20.24;93.47;96197.94;10527924;28;1914;-77
2023/08/10 09:09:53;;;;;;;;;;;;;;;20.48;93.55;96205.59;10532285;28;1526;-76
2023/08/10 09:14:56;;;;;;;;;;;;;;;19.93;91.39;96209.88;10524485;28;1501;-76
2023/08/10 09:20:00;;;;;;;;;;;;;;;20.42;91.25;96202.22;10526711;28;1583;-77
2023/08/10 09:25:05;;;;;;;;;;;;;;;20.75;87.29;96194.25;10520831;28;2242;-77
2023/08/10 09:30:11;;;;;;;;;;;;;;;20.59;81.98;96192.38;10523086;28;1615;-76
2023/08/10 09:35:26;;;;;;;;;;;;;;;21.01;75.82;96187.84;10521942;28;1902;-79
2023/08/10 09:40:31;;;;;;;;;;;;;;;20.71;76.81;96190.56;10518250;28;4519;-75
2023/08/10 09:45:39;;;;;;;;;;;;;;;20.49;77.01;96188.09;10517765;28;2043;-75
2023/08/10 09:50:47;;;;;;;;;;;;;;;20.52;74.46;96182.78;10509831;28;1909;-75
2023/08/10 09:55:50;;;;;;;;;;;;;;;20.57;69.19;96186.47;10520521;28;1878;-72
2023/08/10 10:01:02;;;;;;;;;;;;;;;20.52;69.87;96174.56;10518315;28;1902;-74
2023/08/10 10:06:09;;;;;;;;;;;;;;;20.30;69.54;96185.72;10516646;28;1981;-75
2023/08/10 10:11:13;;;;;;;;;;;;;;;20.48;68.21;96184.53;10518459;28;1914;-72
2023/08/10 10:16:17;;;;;;;;;;;;;;;20.25;66.77;96174.97;10511938;28;1885;-74
2023/08/10 10:21:23;;;;;;;;;;;;;;;20.37;69.51;96177.81;10531752;27;2254;-74
2023/08/10 10:26:28;;;;;;;;;;;;;;;20.38;66.12;96179.44;10516198;28;1963;-74
2023/08/10 10:31:36;;;;;;;;;;;;;;;20.13;70.85;96172.91;10512546;28;1969;-75
2023/08/10 10:36:40;;;;;;;;;;;;;;;20.33;68.79;96171.41;10517067;28;2006;-74
2023/08/10 10:41:44;;;;;;;;;;;;;;;21.13;66.41;96166.06;10514525;28;4480;-75
2023/08/10 10:46:50;;;;;;;;;;;;;;;20.94;64.36;96161.03;10508581;28;2152;-76
2023/08/10 10:51:59;;;;;;;;;;;;;;;21.56;69.62;96164.97;10519756;28;2022;-75
2023/08/10 10:57:08;;;;;;;;;;;;;;;21.54;62.19;96154.38;10514723;28;2066;-73
2023/08/10 11:02:13;;;;;;;;;;;;;;;21.73;65.55;96147.63;10517347;28;1949;-74
2023/08/10 11:07:20;;;;;;;;;;;;;;;21.65;76.25;96152.03;10511979;28;2017;-74
2023/08/10 11:12:24;;;;;;;;;;;;;;;22.80;57.37;96145.81;10514690;28;1891;-75
2023/08/10 11:17:31;;;;;;;;;;;;;;;23.70;53.78;96137.22;10528865;28;2422;-76
2023/08/10 11:22:53;;;;;;;;;;;;;;;22.80;57.75;96124.69;10513124;28;2041;-75
2023/08/10 11:28:02;;;;;;;;;;;;;;;22.35;63.54;96130.25;10513212;28;1918;-76
2023/08/10 11:33:07;;;;;;;;;;;;;;;21.72;59.61;96124.13;10515482;28;1989;-76
2023/08/10 11:38:16;;;;;;;;;;;;;;;21.22;60.02;96120.34;10523778;28;2061;-75
2023/08/10 11:43:22;;;;;;;;;;;;;;;21.19;61.67;96112.00;10515343;28;4524;-75
2023/08/10 11:48:26;;;;;;;;;;;;;;;21.21;70.05;96102.34;10511444;28;1900;-75
2023/08/10 11:53:54;;;;;;;;;;;;;;;21.10;77.92;96100.31;10512043;28;1863;-80
2023/08/10 11:58:59;;;;;;;;;;;;;;;21.64;63.11;96086.72;10512644;28;2236;-75
2023/08/10 12:04:10;;;;;;;;;;;;;;;21.89;64.89;96090.34;10511298;28;1807;-78
2023/08/10 12:09:14;;;;;;;;;;;;;;;22.18;67.80;96094.84;10512261;28;1963;-79
2023/08/10 12:14:17;;;;;;;;;;;;;;;21.64;66.26;96092.19;10508220;28;1932;-74
2023/08/10 12:19:23;;;;;;;;;;;;;;;22.02;65.98;96086.47;10515072;28;1871;-74
2023/08/10 12:24:31;;;;;;;;;;;;;;;21.73;65.13;96079.22;10512589;28;2149;-74
2023/08/10 12:29:40;;;;;;;;;;;;;;;21.55;67.79;96084.06;10516746;28;1917;-75
2023/08/10 12:34:47;;;;;;;;;;;;;;;21.62;67.02;96062.41;10508914;28;1936;-75
2023/08/10 12:39:52;;;;;;;;;;;;;;;22.00;61.97;96066.84;10528556;28;1834;-75
2023/08/10 12:44:55;;;;;;;;;;;;;;;22.15;61.42;96059.97;10513921;28;1897;-74
2023/08/10 12:49:59;;;;;;;;;;;;;;;21.95;60.03;96054.19;10524085;28;2165;-77
2023/08/10 12:55:08;;;;;;;;;;;;;;;22.12;58.64;96066.88;10524159;28;1831;-75
2023/08/10 13:00:20;;;;;;;;;;;;;;;22.73;59.00;96060.63;10520233;28;2125;-75
2023/08/10 13:05:27;;;;;;;;;;;;;;;22.65;62.67;96056.88;10522322;28;1976;-75
2023/08/10 13:10:31;;;;;;;;;;;;;;;22.97;56.47;96057.88;10520832;28;2286;-74
2023/08/10 13:15:38;;;;;;;;;;;;;;;23.09;52.53;96049.59;10520888;28;1851;-77
2023/08/10 13:20:43;;;;;;;;;;;;;;;23.22;54.99;96055.03;10520981;28;1961;-73
2023/08/10 13:25:52;;;;;;;;;;;;;;;23.13;54.19;96057.94;10515862;28;1977;-75
2023/08/10 13:30:58;;;;;;;;;;;;;;;23.07;57.64;96059.31;10524090;28;1843;-74
2023/08/10 13:36:04;;;;;;;;;;;;;;;23.05;55.75;96073.38;10515075;28;1962;-74
2023/08/10 13:41:09;;;;;;;;;;;;;;;23.88;56.70;96055.34;10522656;28;4501;-76
2023/08/10 13:46:14;;;;;;;;;;;;;;;23.80;54.69;96055.53;10520323;28;1965;-75
2023/08/10 13:51:19;;;;;;;;;;;;;;;24.37;61.41;96046.03;10517137;28;1934;-75
2023/08/10 13:56:35;;;;;;;;;;;;;;;24.58;51.38;96057.50;10520816;28;1991;-74
2023/08/10 14:01:43;;;;;;;;;;;;;;;23.79;54.26;96056.66;10503482;28;1903;-74
2023/08/10 14:06:50;;;;;;;;;;;;;;;24.07;53.58;96059.38;10519392;28;2309;-73
2023/08/10 14:11:56;;;;;;;;;;;;;;;24.41;51.83;96055.13;10515037;28;1932;-74
2023/08/10 14:17:08;;;;;;;;;;;;;;;24.52;49.49;96046.00;10530989;27;1866;-75
2023/08/10 14:22:11;;;;;;;;;;;;;;;24.62;48.47;96039.16;10527378;28;1832;-75
2023/08/10 14:27:17;;;;;;;;;;;;;;;25.03;49.68;96045.16;10517305;28;1971;-74
2023/08/10 14:32:27;;;;;;;;;;;;;;;24.59;49.00;96042.63;10515680;28;1890;-75
2023/08/10 14:37:30;;;;;;;;;;;;;;;24.04;48.67;96041.63;10519341;28;1870;-75
2023/08/10 14:48:07;;;;;;;;;;;;;;;24.80;48.68;96045.84;10518753;28;1922;-74
2023/08/10 14:53:10;;;;;;;;;;;;;;;24.12;51.28;96048.13;10515213;28;1822;-75
2023/08/10 14:58:14;;;;;;;;;;;;;;;23.69;53.06;96050.53;10512236;28;1862;-75
2023/08/10 15:03:19;;;;;;;;;;;;;;;23.66;53.44;96059.47;10515430;28;2321;-74
2023/08/10 15:08:23;;;;;;;;;;;;;;;23.17;53.40;96054.16;10519424;28;1914;-72
2023/08/10 15:13:29;;;;;;;;;;;;;;;23.71;52.95;96055.66;10509946;28;2040;-72
2023/08/10 15:18:32;;;;;;;;;;;;;;;23.44;55.28;96047.09;10514703;28;2016;-72
2023/08/10 15:23:36;;;;;;;;;;;;;;;23.12;54.29;96040.69;10519083;28;1875;-72
2023/08/10 15:28:43;;;;;;;;;;;;;;;23.23;55.47;96043.75;10515834;28;1906;-73
2023/08/10 15:33:48;;;;;;;;;;;;;;;23.33;54.55;96047.94;10511830;28;2166;-73
2023/08/10 15:38:54;;;;;;;;;;;;;;;23.44;55.32;96046.28;10519743;28;1901;-73
2023/08/10 15:43:58;;;;;;;;;;;;;;;23.10;56.49;96037.50;10516875;28;4596;-74
2023/08/10 15:49:03;;;;;;;;;;;;;;;22.92;55.91;96036.97;10516462;28;1914;-74
2023/08/10 15:54:09;;;;;;;;;;;;;;;22.78;57.52;96044.75;10535245;28;1859;-73
2023/08/10 15:59:13;;;;;;;;;;;;;;;22.54;58.20;96031.09;10516365;28;2323;-75
2023/08/10 16:04:16;;;;;;;;;;;;;;;22.52;59.83;96045.13;10514926;28;1943;-73
2023/08/10 16:09:22;;;;;;;;;;;;;;;22.38;59.11;96042.72;10519725;28;1917;-74
2023/08/10 16:14:25;;;;;;;;;;;;;;;22.44;59.19;96037.00;10518468;28;2081;-74
2023/08/10 16:19:30;;;;;;;;;;;;;;;22.17;60.51;96035.75;10506454;28;1876;-73
2023/08/10 16:24:36;;;;;;;;;;;;;;;22.13;62.05;96039.16;10528926;28;1871;-73
2023/08/10 16:29:41;;;;;;;;;;;;;;;22.16;61.35;96039.66;10536021;28;1972;-74
2023/08/10 16:34:45;;;;;;;;;;;;;;;22.04;63.58;96043.13;10541258;28;1883;-74
2023/08/10 16:39:52;;;;;;;;;;;;;;;21.90;64.06;96046.19;10526287;28;4576;-74
2023/08/10 16:50:19;;;;;;;;;;;;;;;21.63;67.03;96057.75;10522954;28;1977;-74
2023/08/10 16:55:30;;;;;;;;;;;;;;;21.54;68.32;96064.09;10525718;28;2230;-73
2023/08/10 17:00:39;;;;;;;;;;;;;;;21.56;70.07;96055.56;10529148;28;1846;-74
2023/08/10 17:05:43;;;;;;;;;;;;;;;21.42;73.13;96055.84;10528626;28;1910;-74
2023/08/10 17:10:50;;;;;;;;;;;;;;;21.30;73.70;96051.13;10533421;28;1969;-74
2023/08/10 17:15:54;;;;;;;;;;;;;;;21.21;73.93;96058.59;10522338;28;1934;-75
2023/08/10 17:21:03;;;;;;;;;;;;;;;21.07;74.67;96066.28;10523018;28;1943;-75
2023/08/10 17:26:09;;;;;;;;;;;;;;;20.95;75.75;96061.53;10530687;28;1862;-73
2023/08/10 17:31:14;;;;;;;;;;;;;;;20.90;75.92;96056.25;10538487;28;2029;-74
2023/08/10 17:36:20;;;;;;;;;;;;;;;20.81;76.20;96060.19;10522888;28;1890;-74
2023/08/10 17:41:27;;;;;;;;;;;;;;;20.65;78.22;96065.44;10532313;28;4612;-74
2023/08/10 17:46:45;;;;;;;;;;;;;;;20.50;79.62;96067.63;10524742;28;2232;-73
2023/08/10 17:51:51;;;;;;;;;;;;;;;20.42;80.59;96065.72;10524344;28;2314;-73
2023/08/10 17:56:56;;;;;;;;;;;;;;;20.32;84.43;96065.28;10520291;28;2014;-74
2023/08/10 18:01:59;;;;;;;;;;;;;;;20.19;86.57;96067.09;10526913;28;1886;-74
2023/08/10 18:07:05;;;;;;;;;;;;;;;20.04;89.31;96062.16;10523637;28;1914;-74
2023/08/10 18:12:09;;;;;;;;;;;;;;;19.87;92.72;96058.38;10521411;28;1894;-74
2023/08/10 18:17:15;;;;;;;;;;;;;;;19.73;95.81;96071.44;10526840;28;2043;-75
2023/08/10 18:22:22;;;;;;;;;;;;;;;19.55;97.38;96070.63;10532486;28;1954;-74
2023/08/10 18:27:33;;;;;;;;;;;;;;;19.38;100.00;96074.16;10540394;27;1902;-77
2023/08/10 18:32:37;;;;;;;;;;;;;;;19.27;100.00;96075.63;10525095;28;1904;-74
2023/08/10 18:37:43;;;;;;;;;;;;;;;19.12;100.00;96078.84;10524432;28;1956;-74
2023/08/10 18:42:51;;;;;;;;;;;;;;;19.02;100.00;96079.13;10520706;28;4524;-73
2023/08/10 18:47:56;;;;;;;;;;;;;;;18.81;100.00;96084.41;10523644;28;2471;-74
2023/08/10 18:53:01;;;;;;;;;;;;;;;18.64;100.00;96096.06;10537739;28;1923;-75
2023/08/10 18:58:05;;;;;;;;;;;;;;;18.47;100.00;96106.91;10523356;28;1845;-74
2023/08/10 19:03:09;;;;;;;;;;;;;;;18.36;100.00;96109.09;10515960;28;1890;-73
2023/08/10 19:08:13;;;;;;;;;;;;;;;18.33;100.00;96107.03;10523371;28;1914;-74
2023/08/10 19:13:17;;;;;;;;;;;;;;;18.11;100.00;96113.31;10524768;28;1938;-73
2023/08/10 19:18:25;;;;;;;;;;;;;;;17.93;100.00;96119.78;10537205;27;1985;-75
2023/08/10 19:23:29;;;;;;;;;;;;;;;17.82;100.00;96127.41;10526803;28;1902;-76
2023/08/10 19:28:34;;;;;;;;;;;;;;;17.81;100.00;96129.34;10518309;28;2002;-74
2023/08/10 19:33:38;;;;;;;;;;;;;;;17.88;100.00;96136.22;10523506;28;1906;-74
2023/08/10 19:38:45;;;;;;;;;;;;;;;17.80;100.00;96137.78;10521579;28;2020;-74
2023/08/10 19:43:52;;;;;;;;;;;;;;;17.55;100.00;96140.00;10520722;28;4528;-75
2023/08/10 19:49:01;;;;;;;;;;;;;;;17.40;100.00;96145.00;10523852;28;1974;-73
2023/08/10 19:54:05;;;;;;;;;;;;;;;17.37;100.00;96145.59;10519790;28;1917;-74
2023/08/10 19:59:10;;;;;;;;;;;;;;;17.22;100.00;96155.72;10519194;28;2016;-74
2023/08/10 20:04:16;;;;;;;;;;;;;;;17.21;100.00;96164.97;10524139;28;1990;-75
2023/08/10 20:09:21;;;;;;;;;;;;;;;17.11;100.00;96162.47;10521174;28;1977;-77
2023/08/10 20:14:26;;;;;;;;;;;;;;;17.04;100.00;96170.25;10537899;28;1898;-76
2023/08/10 20:19:30;;;;;;;;;;;;;;;17.06;100.00;96159.91;10518179;28;1866;-74
2023/08/10 20:24:34;;;;;;;;;;;;;;;17.10;100.00;96158.16;10518411;28;1969;-75
2023/08/10 20:29:38;;;;;;;;;;;;;;;16.93;100.00;96160.72;10517096;28;1975;-75
2023/08/10 20:34:45;;;;;;;;;;;;;;;16.83;100.00;96164.44;10518839;28;1897;-74
2023/08/10 20:39:48;;;;;;;;;;;;;;;16.80;100.00;96167.00;10515119;28;4607;-74
2023/08/10 20:44:57;;;;;;;;;;;;;;;16.61;100.00;96161.66;10538410;28;1937;-74
2023/08/10 20:50:08;;;;;;;;;;;;;;;16.42;100.00;96169.88;10515661;28;1950;-73
2023/08/10 20:55:14;;;;;;;;;;;;;;;16.49;100.00;96165.66;10522801;28;2117;-74
2023/08/10 21:00:17;;;;;;;;;;;;;;;16.36;100.00;96161.03;10516878;28;2011;-74
2023/08/10 21:05:21;;;;;;;;;;;;;;;16.49;100.00;96171.09;10517999;28;2010;-74
2023/08/10 21:10:25;;;;;;;;;;;;;;;16.37;100.00;96165.34;10520717;28;1949;-74
2023/08/10 21:15:29;;;;;;;;;;;;;;;16.39;100.00;96175.91;10525081;28;1976;-75
2023/08/10 21:20:36;;;;;;;;;;;;;;;16.17;100.00;96180.09;10527408;28;1869;-77
2023/08/10 21:25:40;;;;;;;;;;;;;;;15.99;100.00;96188.31;10521972;28;1975;-73
2023/08/10 21:30:44;;;;;;;;;;;;;;;15.91;100.00;96187.88;10522021;28;2125;-73
2023/08/10 21:35:48;;;;;;;;;;;;;;;15.91;100.00;96187.88;10522115;28;2408;-73
2023/08/10 21:40:52;;;;;;;;;;;;;;;15.98;100.00;96187.50;10539549;27;4492;-70
2023/08/10 21:45:55;;;;;;;;;;;;;;;16.07;100.00;96184.91;10536711;28;1892;-66
2023/08/10 21:50:58;;;;;;;;;;;;;;;16.13;100.00;96195.34;10513465;28;1941;-70
2023/08/10 21:56:02;;;;;;;;;;;;;;;15.90;100.00;96196.28;10515558;28;1907;-70
2023/08/10 22:01:06;;;;;;;;;;;;;;;15.75;100.00;96204.69;10520829;28;1954;-69
2023/08/10 22:06:12;;;;;;;;;;;;;;;15.78;100.00;96204.09;10504021;28;1946;-69
2023/08/10 22:11:16;;;;;;;;;;;;;;;15.72;100.00;96208.81;10522276;28;2043;-71
2023/08/10 22:16:21;;;;;;;;;;;;;;;15.84;100.00;96205.59;10533887;28;1999;-69
2023/08/10 22:21:26;;;;;;;;;;;;;;;15.84;100.00;96213.75;10519595;28;1898;-68
2023/08/10 22:26:29;;;;;;;;;;;;;;;15.64;100.00;96223.81;10525865;28;1576;-68
2023/08/10 22:31:33;;;;;;;;;;;;;;;15.59;100.00;96220.38;10524959;28;2332;-69
2023/08/10 22:36:37;;;;;;;;;;;;;;;15.47;100.00;96220.00;10524389;28;1520;-69
2023/08/10 22:41:40;;;;;;;;;;;;;;;15.40;100.00;96229.31;10520113;28;4604;-69
2023/08/10 22:46:43;;;;;;;;;;;;;;;15.35;100.00;96225.84;10523911;28;1515;-69
2023/08/10 22:51:48;;;;;;;;;;;;;;;15.37;100.00;96226.34;10527013;28;1909;-69
2023/08/10 22:56:52;;;;;;;;;;;;;;;15.27;100.00;96221.06;10526834;28;1659;-70
2023/08/10 23:01:55;;;;;;;;;;;;;;;15.20;100.00;96220.63;10525310;28;1494;-68
2023/08/10 23:06:59;;;;;;;;;;;;;;;15.14;100.00;96223.44;10523762;28;1443;-67
2023/08/10 23:12:02;;;;;;;;;;;;;;;15.06;100.00;96226.78;10520388;28;1993;-68
2023/08/10 23:17:05;;;;;;;;;;;;;;;14.96;100.00;96226.91;10525404;28;1504;-69
2023/08/10 23:22:09;;;;;;;;;;;;;;;15.01;100.00;96218.72;10522724;28;1557;-69
2023/08/10 23:27:12;;;;;;;;;;;;;;;15.05;100.00;96219.75;10522106;28;2294;-68
2023/08/10 23:32:15;;;;;;;;;;;;;;;15.00;100.00;96217.09;10528232;28;1914;-69
2023/08/10 23:37:18;;;;;;;;;;;;;;;15.08;100.00;96216.47;10523643;28;1505;-72
2023/08/10 23:42:21;;;;;;;;;;;;;;;14.99;100.00;96212.78;10524031;28;4651;-69
2023/08/10 23:47:25;;;;;;;;;;;;;;;14.86;100.00;96213.50;10538826;28;1583;-67
2023/08/10 23:52:29;;;;;;;;;;;;;;;14.82;100.00;96204.34;10524652;28;1913;-69
2023/08/10 23:57:32;;;;;;;;;;;;;;;14.82;100.00;96217.88;10516088;28;1881;-68
